Aeroporto :
LOGIN :

Iscrizione | Disclaimer

   EN    FR    IT 

 










Sommario :    VFR   VFR Marginale   IFR   IFR Intensivo   IFR Molto Intensivo
Visibilità : 
Base nubi : 
>= 8 km
>= 3000ft
5 / 8 km
1000 / 3000 ft
1500m / 5 km
500 / 1000 ft
800 / 1500m
200 / 500 ft
< 800m
< 200 ft
Simboli :   Temporali  Nebbia  Neve Forte  Precipitazioni Forti  Vento > 20 kt
SIGMETs :   Varie  Temporali  Ghiacco  Turbolenza  Onda orograficha  Ceneri Vulcaniche







- Altitudine del aeroporto : 97 ft
- Codice IATA : EBJ


EKEB - Esbjerg

ULTIMO METAR :
  • 220950Z 18008KT 140V200 6000 -RA SCT010 SCT022 BKN030 16/15 Q1019

METARs OBSOLETI :
  • 220920Z 18010KT 140V200 6000 -RA FEW010 SCT022 BKN030 16/15 Q1019
  • 220850Z 18008KT 140V220 8000 -RA FEW018 SCT028 BKN060 16/15 Q1019
  • 220820Z 18008KT 140V210 9999 -RA FEW032 SCT058 BKN083 16/14 Q1019
  • 220750Z 17006KT 130V210 9999 -RA FEW032 SCT058 BKN083 16/15 Q1019
  • 220720Z AUTO 19006KT 150V220 9999 DZ ///////// 16/14 Q1020

TAF TAF EKEB
Valido dal 22 a 09 ore il 22 a 18 ore UTC


220808Z 2209/2218 16008KT 9999 BKN030
TEMPO 2209/2212 4000 RA BKN012
BECMG 2212/2214 24012KT 3000 BR RADZ BKN004
TEMPO 2214/2218 6000 NSW BKN015
Nessun NOTAM noto per questo aeroporto.



MetMap, La meteo Aeronautica in un colpo d'occhio ! - Copyright ORBIFLY Dicembre 2007 - Disclaimer

ORBIFLY MET'MAP TEAM :

Programmazione e sviluppo : Alexandra Zaïnal
Concezione e sviluppo : Baudouin d'Aumeries
Co-Programmazione e sviluppo : Marc-Olivier Méhu
Supporto tecnico e logistico : Manuel Goepfert
Aiuto per la traduzione : Arnaldo La Scala

Contatto : metmap@orbifly.com




FONTI E CREDITI :

   NOAA